sensor_id;sensor_type;location;lat;lon;timestamp;P1;durP1;ratioP1;P2;durP2;ratioP2
2061;SDS011;11070;51.336;12.340;2024-03-23T00:53:08;32.75;;;21.45;;
2061;SDS011;11070;51.336;12.340;2024-03-23T00:55:35;29.67;;;20.52;;
2061;SDS011;11070;51.336;12.340;2024-03-23T00:58:00;29.07;;;18.63;;
2061;SDS011;11070;51.336;12.340;2024-03-23T01:00:26;27.60;;;19.77;;
2061;SDS011;11070;51.336;12.340;2024-03-23T01:02:51;25.87;;;18.60;;
2061;SDS011;11070;51.336;12.340;2024-03-23T01:05:17;26.57;;;19.47;;
2061;SDS011;11070;51.336;12.340;2024-03-23T01:07:43;24.57;;;18.60;;
2061;SDS011;11070;51.336;12.340;2024-03-23T01:10:08;27.80;;;19.20;;
2061;SDS011;11070;51.336;12.340;2024-03-23T01:12:34;26.63;;;18.60;;
2061;SDS011;11070;51.336;12.340;2024-03-23T01:15:00;28.90;;;20.20;;
2061;SDS011;11070;51.336;12.340;2024-03-23T01:17:25;27.70;;;19.23;;
2061;SDS011;11070;51.336;12.340;2024-03-23T01:19:51;25.57;;;17.47;;
2061;SDS011;11070;51.336;12.340;2024-03-23T01:22:17;23.88;;;17.02;;
2061;SDS011;11070;51.336;12.340;2024-03-23T01:24:43;23.33;;;16.63;;
2061;SDS011;11070;51.336;12.340;2024-03-23T01:27:09;19.47;;;14.40;;
2061;SDS011;11070;51.336;12.340;2024-03-23T01:29:35;18.23;;;13.23;;
2061;SDS011;11070;51.336;12.340;2024-03-23T01:32:00;16.20;;;11.90;;
2061;SDS011;11070;51.336;12.340;2024-03-23T01:34:26;17.10;;;12.20;;
2061;SDS011;11070;51.336;12.340;2024-03-23T01:36:53;14.30;;;11.15;;
2061;SDS011;11070;51.336;12.340;2024-03-23T01:39:18;13.43;;;9.90;;
2061;SDS011;11070;51.336;12.340;2024-03-23T01:41:44;13.07;;;10.83;;
2061;SDS011;11070;51.336;12.340;2024-03-23T01:44:10;11.80;;;9.47;;
2061;SDS011;11070;51.336;12.340;2024-03-23T01:46:39;15.95;;;9.15;;
2061;SDS011;11070;51.336;12.340;2024-03-23T01:49:06;12.95;;;9.38;;
2061;SDS011;11070;51.336;12.340;2024-03-23T01:51:33;13.32;;;9.73;;
2061;SDS011;11070;51.336;12.340;2024-03-23T01:53:59;12.05;;;9.05;;
2061;SDS011;11070;51.336;12.340;2024-03-23T01:56:28;13.80;;;10.20;;
2061;SDS011;11070;51.336;12.340;2024-03-23T01:58:58;17.10;;;11.65;;
2061;SDS011;11070;51.336;12.340;2024-03-23T02:01:24;18.10;;;11.63;;
2061;SDS011;11070;51.336;12.340;2024-03-23T02:03:50;18.37;;;12.20;;
2061;SDS011;11070;51.336;12.340;2024-03-23T02:06:15;17.37;;;11.07;;
2061;SDS011;11070;51.336;12.340;2024-03-23T02:08:41;16.57;;;11.30;;
2061;SDS011;11070;51.336;12.340;2024-03-23T02:11:07;18.30;;;11.93;;
2061;SDS011;11070;51.336;12.340;2024-03-23T02:13:33;15.43;;;10.57;;
2061;SDS011;11070;51.336;12.340;2024-03-23T02:15:58;17.37;;;10.80;;
2061;SDS011;11070;51.336;12.340;2024-03-23T02:18:24;17.20;;;10.53;;
2061;SDS011;11070;51.336;12.340;2024-03-23T02:20:50;14.30;;;9.80;;
2061;SDS011;11070;51.336;12.340;2024-03-23T02:23:16;14.30;;;9.90;;
2061;SDS011;11070;51.336;12.340;2024-03-23T02:25:43;15.70;;;10.02;;
2061;SDS011;11070;51.336;12.340;2024-03-23T02:28:09;14.80;;;9.55;;
2061;SDS011;11070;51.336;12.340;2024-03-23T02:30:34;13.33;;;8.53;;
2061;SDS011;11070;51.336;12.340;2024-03-23T02:33:00;13.80;;;9.00;;
2061;SDS011;11070;51.336;12.340;2024-03-23T02:35:26;12.20;;;8.47;;
2061;SDS011;11070;51.336;12.340;2024-03-23T02:37:52;13.30;;;8.53;;
2061;SDS011;11070;51.336;12.340;2024-03-23T02:40:18;11.63;;;8.13;;
2061;SDS011;11070;51.336;12.340;2024-03-23T02:42:45;11.70;;;8.00;;
2061;SDS011;11070;51.336;12.340;2024-03-23T02:45:11;10.87;;;8.30;;
2061;SDS011;11070;51.336;12.340;2024-03-23T02:47:37;11.10;;;7.87;;
2061;SDS011;11070;51.336;12.340;2024-03-23T02:50:02;13.80;;;8.37;;
2061;SDS011;11070;51.336;12.340;2024-03-23T02:52:29;13.65;;;7.70;;
2061;SDS011;11070;51.336;12.340;2024-03-23T02:54:58;13.05;;;8.25;;
2061;SDS011;11070;51.336;12.340;2024-03-23T02:57:23;14.57;;;7.37;;
2061;SDS011;11070;51.336;12.340;2024-03-23T02:59:49;11.03;;;7.40;;
2061;SDS011;11070;51.336;12.340;2024-03-23T03:02:15;13.20;;;7.53;;
2061;SDS011;11070;51.336;12.340;2024-03-23T03:04:41;12.73;;;8.17;;
2061;SDS011;11070;51.336;12.340;2024-03-23T03:07:07;11.00;;;7.43;;
2061;SDS011;11070;51.336;12.340;2024-03-23T03:09:33;12.80;;;8.20;;
2061;SDS011;11070;51.336;12.340;2024-03-23T03:12:04;11.35;;;7.22;;
2061;SDS011;11070;51.336;12.340;2024-03-23T03:14:30;10.15;;;6.72;;
2061;SDS011;11070;51.336;12.340;2024-03-23T03:16:56;12.93;;;6.23;;
2061;SDS011;11070;51.336;12.340;2024-03-23T03:19:21;7.30;;;5.93;;
2061;SDS011;11070;51.336;12.340;2024-03-23T03:21:47;9.50;;;6.30;;
2061;SDS011;11070;51.336;12.340;2024-03-23T03:24:13;11.40;;;6.33;;
2061;SDS011;11070;51.336;12.340;2024-03-23T03:26:39;10.03;;;5.87;;
2061;SDS011;11070;51.336;12.340;2024-03-23T03:29:05;8.80;;;5.82;;
2061;SDS011;11070;51.336;12.340;2024-03-23T03:31:30;7.30;;;5.50;;
2061;SDS011;11070;51.336;12.340;2024-03-23T03:33:56;8.53;;;5.17;;
2061;SDS011;11070;51.336;12.340;2024-03-23T03:36:22;8.70;;;5.73;;
2061;SDS011;11070;51.336;12.340;2024-03-23T03:38:47;7.00;;;4.73;;
2061;SDS011;11070;51.336;12.340;2024-03-23T03:41:13;7.50;;;5.03;;
2061;SDS011;11070;51.336;12.340;2024-03-23T03:43:39;8.87;;;4.70;;
2061;SDS011;11070;51.336;12.340;2024-03-23T03:46:04;4.77;;;4.00;;
2061;SDS011;11070;51.336;12.340;2024-03-23T03:48:32;8.02;;;4.18;;
2061;SDS011;11070;51.336;12.340;2024-03-23T03:50:58;7.00;;;5.30;;
2061;SDS011;11070;51.336;12.340;2024-03-23T03:53:24;4.80;;;4.13;;
2061;SDS011;11070;51.336;12.340;2024-03-23T03:55:50;8.17;;;4.67;;
2061;SDS011;11070;51.336;12.340;2024-03-23T03:58:15;6.13;;;4.63;;
2061;SDS011;11070;51.336;12.340;2024-03-23T04:00:41;7.90;;;4.77;;
2061;SDS011;11070;51.336;12.340;2024-03-23T04:03:07;6.70;;;3.87;;
2061;SDS011;11070;51.336;12.340;2024-03-23T04:05:32;6.27;;;4.40;;
2061;SDS011;11070;51.336;12.340;2024-03-23T04:07:58;5.13;;;3.70;;
2061;SDS011;11070;51.336;12.340;2024-03-23T04:10:24;3.97;;;3.33;;
2061;SDS011;11070;51.336;12.340;2024-03-23T04:12:49;5.63;;;4.10;;
2061;SDS011;11070;51.336;12.340;2024-03-23T04:15:15;5.30;;;3.57;;
2061;SDS011;11070;51.336;12.340;2024-03-23T04:17:41;5.97;;;3.90;;
2061;SDS011;11070;51.336;12.340;2024-03-23T04:20:08;5.53;;;4.28;;
2061;SDS011;11070;51.336;12.340;2024-03-23T04:22:39;4.55;;;3.00;;
2061;SDS011;11070;51.336;12.340;2024-03-23T04:25:05;4.95;;;3.50;;
2061;SDS011;11070;51.336;12.340;2024-03-23T04:27:35;5.65;;;3.50;;
2061;SDS011;11070;51.336;12.340;2024-03-23T04:30:05;7.22;;;4.07;;
2061;SDS011;11070;51.336;12.340;2024-03-23T04:32:36;6.65;;;3.95;;
2061;SDS011;11070;51.336;12.340;2024-03-23T04:35:02;5.25;;;4.00;;
2061;SDS011;11070;51.336;12.340;2024-03-23T04:37:34;5.72;;;3.78;;
2061;SDS011;11070;51.336;12.340;2024-03-23T04:40:01;6.22;;;3.80;;
2061;SDS011;11070;51.336;12.340;2024-03-23T04:42:28;5.30;;;3.80;;
2061;SDS011;11070;51.336;12.340;2024-03-23T04:44:54;6.40;;;4.03;;
2061;SDS011;11070;51.336;12.340;2024-03-23T04:47:19;4.50;;;3.53;;
2061;SDS011;11070;51.336;12.340;2024-03-23T04:49:45;5.93;;;3.70;;
2061;SDS011;11070;51.336;12.340;2024-03-23T04:52:11;4.88;;;3.53;;
2061;SDS011;11070;51.336;12.340;2024-03-23T04:54:37;9.60;;;6.17;;
2061;SDS011;11070;51.336;12.340;2024-03-23T04:57:05;4.18;;;3.70;;
2061;SDS011;11070;51.336;12.340;2024-03-23T04:59:31;4.90;;;3.90;;
2061;SDS011;11070;51.336;12.340;2024-03-23T05:01:56;5.83;;;4.53;;
2061;SDS011;11070;51.336;12.340;2024-03-23T05:04:22;3.70;;;3.30;;
2061;SDS011;11070;51.336;12.340;2024-03-23T05:06:48;6.37;;;3.77;;
2061;SDS011;11070;51.336;12.340;2024-03-23T05:09:14;9.87;;;4.33;;
2061;SDS011;11070;51.336;12.340;2024-03-23T05:11:39;6.33;;;3.93;;
2061;SDS011;11070;51.336;12.340;2024-03-23T05:14:06;7.43;;;3.80;;
2061;SDS011;11070;51.336;12.340;2024-03-23T05:16:32;5.37;;;3.80;;
2061;SDS011;11070;51.336;12.340;2024-03-23T05:18:58;6.85;;;3.90;;
2061;SDS011;11070;51.336;12.340;2024-03-23T05:21:24;6.83;;;4.07;;
2061;SDS011;11070;51.336;12.340;2024-03-23T05:23:50;5.57;;;4.17;;
2061;SDS011;11070;51.336;12.340;2024-03-23T05:26:16;5.30;;;3.80;;
2061;SDS011;11070;51.336;12.340;2024-03-23T05:28:42;4.50;;;3.50;;
2061;SDS011;11070;51.336;12.340;2024-03-23T05:31:08;7.22;;;4.53;;
2061;SDS011;11070;51.336;12.340;2024-03-23T05:33:35;6.00;;;4.47;;
2061;SDS011;11070;51.336;12.340;2024-03-23T05:36:03;4.47;;;3.55;;
2061;SDS011;11070;51.336;12.340;2024-03-23T05:38:29;8.02;;;4.30;;
2061;SDS011;11070;51.336;12.340;2024-03-23T05:40:58;5.50;;;4.60;;
2061;SDS011;11070;51.336;12.340;2024-03-23T05:43:25;5.78;;;4.43;;
2061;SDS011;11070;51.336;12.340;2024-03-23T05:45:57;7.15;;;4.45;;
2061;SDS011;11070;51.336;12.340;2024-03-23T05:48:27;8.23;;;4.60;;
2061;SDS011;11070;51.336;12.340;2024-03-23T05:50:53;7.57;;;4.57;;
2061;SDS011;11070;51.336;12.340;2024-03-23T05:53:19;7.00;;;4.37;;
2061;SDS011;11070;51.336;12.340;2024-03-23T05:55:45;5.43;;;4.40;;
2061;SDS011;11070;51.336;12.340;2024-03-23T05:58:12;5.53;;;4.43;;
2061;SDS011;11070;51.336;12.340;2024-03-23T06:00:39;5.97;;;4.78;;
2061;SDS011;11070;51.336;12.340;2024-03-23T06:03:05;5.13;;;4.57;;
2061;SDS011;11070;51.336;12.340;2024-03-23T06:05:31;7.87;;;5.23;;
2061;SDS011;11070;51.336;12.340;2024-03-23T06:07:57;7.80;;;5.30;;
2061;SDS011;11070;51.336;12.340;2024-03-23T06:10:22;7.07;;;5.53;;
2061;SDS011;11070;51.336;12.340;2024-03-23T06:12:48;7.53;;;5.00;;
2061;SDS011;11070;51.336;12.340;2024-03-23T06:15:16;6.82;;;4.97;;
2061;SDS011;11070;51.336;12.340;2024-03-23T06:17:43;14.98;;;7.40;;
2061;SDS011;11070;51.336;12.340;2024-03-23T06:20:08;10.33;;;6.60;;
2061;SDS011;11070;51.336;12.340;2024-03-23T06:22:35;10.90;;;6.47;;
2061;SDS011;11070;51.336;12.340;2024-03-23T06:25:01;8.68;;;6.18;;
2061;SDS011;11070;51.336;12.340;2024-03-23T06:27:27;9.52;;;6.38;;
2061;SDS011;11070;51.336;12.340;2024-03-23T06:29:53;10.33;;;6.67;;
2061;SDS011;11070;51.336;12.340;2024-03-23T06:32:18;7.60;;;5.83;;
2061;SDS011;11070;51.336;12.340;2024-03-23T06:34:45;10.90;;;6.28;;
2061;SDS011;11070;51.336;12.340;2024-03-23T06:37:11;8.60;;;6.83;;
2061;SDS011;11070;51.336;12.340;2024-03-23T06:39:36;9.13;;;6.57;;
2061;SDS011;11070;51.336;12.340;2024-03-23T06:42:03;12.07;;;6.55;;
2061;SDS011;11070;51.336;12.340;2024-03-23T06:44:29;11.47;;;7.17;;
2061;SDS011;11070;51.336;12.340;2024-03-23T06:46:56;12.50;;;7.75;;
2061;SDS011;11070;51.336;12.340;2024-03-23T06:49:22;10.57;;;7.60;;
2061;SDS011;11070;51.336;12.340;2024-03-23T06:51:50;12.55;;;7.40;;
2061;SDS011;11070;51.336;12.340;2024-03-23T06:54:19;14.47;;;8.47;;
2061;SDS011;11070;51.336;12.340;2024-03-23T06:56:44;10.68;;;7.28;;
2061;SDS011;11070;51.336;12.340;2024-03-23T06:59:10;16.93;;;8.27;;
2061;SDS011;11070;51.336;12.340;2024-03-23T07:01:36;13.03;;;7.63;;
2061;SDS011;11070;51.336;12.340;2024-03-23T07:04:02;10.80;;;6.70;;
2061;SDS011;11070;51.336;12.340;2024-03-23T07:06:29;9.35;;;7.28;;
2061;SDS011;11070;51.336;12.340;2024-03-23T07:08:57;10.65;;;6.93;;
2061;SDS011;11070;51.336;12.340;2024-03-23T07:11:23;11.73;;;7.43;;
2061;SDS011;11070;51.336;12.340;2024-03-23T07:13:49;13.75;;;7.70;;
2061;SDS011;11070;51.336;12.340;2024-03-23T07:16:19;11.65;;;7.13;;
2061;SDS011;11070;51.336;12.340;2024-03-23T07:18:45;13.13;;;7.13;;
2061;SDS011;11070;51.336;12.340;2024-03-23T07:21:11;12.90;;;7.30;;
2061;SDS011;11070;51.336;12.340;2024-03-23T07:23:37;9.87;;;7.43;;
2061;SDS011;11070;51.336;12.340;2024-03-23T07:26:03;13.23;;;8.00;;
2061;SDS011;11070;51.336;12.340;2024-03-23T07:28:30;10.63;;;6.80;;
2061;SDS011;11070;51.336;12.340;2024-03-23T07:31:07;9.07;;;5.70;;
2061;SDS011;11070;51.336;12.340;2024-03-23T07:33:36;7.90;;;4.72;;
2061;SDS011;11070;51.336;12.340;2024-03-23T07:36:03;9.75;;;5.45;;
2061;SDS011;11070;51.336;12.340;2024-03-23T07:38:29;8.48;;;5.93;;
2061;SDS011;11070;51.336;12.340;2024-03-23T07:43:46;8.70;;;5.65;;
2061;SDS011;11070;51.336;12.340;2024-03-23T07:46:12;8.75;;;5.95;;
2061;SDS011;11070;51.336;12.340;2024-03-23T07:48:41;10.25;;;6.05;;
2061;SDS011;11070;51.336;12.340;2024-03-23T07:51:10;4.88;;;4.00;;
2061;SDS011;11070;51.336;12.340;2024-03-23T07:53:44;4.85;;;3.78;;
2061;SDS011;11070;51.336;12.340;2024-03-23T07:56:14;2.58;;;2.30;;
2061;SDS011;11070;51.336;12.340;2024-03-23T07:58:40;2.40;;;2.20;;
2061;SDS011;11070;51.336;12.340;2024-03-23T08:01:07;2.42;;;2.22;;
2061;SDS011;11070;51.336;12.340;2024-03-23T08:03:35;3.08;;;2.10;;
2061;SDS011;11070;51.336;12.340;2024-03-23T08:08:34;2.30;;;2.10;;
2061;SDS011;11070;51.336;12.340;2024-03-23T08:11:00;3.65;;;1.88;;
2061;SDS011;11070;51.336;12.340;2024-03-23T08:13:26;4.80;;;2.17;;
2061;SDS011;11070;51.336;12.340;2024-03-23T08:15:52;2.90;;;2.70;;
2061;SDS011;11070;51.336;12.340;2024-03-23T08:18:21;2.47;;;2.28;;
2061;SDS011;11070;51.336;12.340;2024-03-23T08:21:02;2.70;;;1.73;;
2061;SDS011;11070;51.336;12.340;2024-03-23T08:23:30;2.65;;;1.90;;
2061;SDS011;11070;51.336;12.340;2024-03-23T08:26:01;1.40;;;1.20;;
2061;SDS011;11070;51.336;12.340;2024-03-23T08:28:29;1.60;;;1.50;;
2061;SDS011;11070;51.336;12.340;2024-03-23T08:30:54;2.92;;;1.75;;
2061;SDS011;11070;51.336;12.340;2024-03-23T08:33:21;5.68;;;4.03;;
2061;SDS011;11070;51.336;12.340;2024-03-23T08:35:56;3.17;;;2.72;;
2061;SDS011;11070;51.336;12.340;2024-03-23T08:38:22;3.05;;;1.90;;
2061;SDS011;11070;51.336;12.340;2024-03-23T08:41:02;4.10;;;3.72;;
2061;SDS011;11070;51.336;12.340;2024-03-23T08:43:33;5.78;;;2.42;;
2061;SDS011;11070;51.336;12.340;2024-03-23T08:46:03;2.20;;;2.00;;
2061;SDS011;11070;51.336;12.340;2024-03-23T08:48:30;2.95;;;2.22;;
2061;SDS011;11070;51.336;12.340;2024-03-23T08:51:02;2.53;;;2.17;;
2061;SDS011;11070;51.336;12.340;2024-03-23T08:53:29;4.40;;;2.80;;
2061;SDS011;11070;51.336;12.340;2024-03-23T08:55:55;3.65;;;1.95;;
2061;SDS011;11070;51.336;12.340;2024-03-23T08:58:23;4.13;;;3.72;;
2061;SDS011;11070;51.336;12.340;2024-03-23T09:00:50;3.35;;;1.95;;
2061;SDS011;11070;51.336;12.340;2024-03-23T09:03:17;2.17;;;1.85;;
2061;SDS011;11070;51.336;12.340;2024-03-23T09:05:42;2.43;;;2.20;;
2061;SDS011;11070;51.336;12.340;2024-03-23T09:08:08;2.60;;;2.30;;
2061;SDS011;11070;51.336;12.340;2024-03-23T09:10:38;3.53;;;2.77;;
2061;SDS011;11070;51.336;12.340;2024-03-23T09:13:04;2.85;;;2.45;;
2061;SDS011;11070;51.336;12.340;2024-03-23T09:15:30;4.07;;;2.70;;
2061;SDS011;11070;51.336;12.340;2024-03-23T09:17:58;3.45;;;2.08;;
2061;SDS011;11070;51.336;12.340;2024-03-23T09:20:25;3.92;;;2.55;;
2061;SDS011;11070;51.336;12.340;2024-03-23T09:22:50;3.47;;;2.23;;
2061;SDS011;11070;51.336;12.340;2024-03-23T09:25:16;3.03;;;2.27;;
2061;SDS011;11070;51.336;12.340;2024-03-23T09:27:42;1.90;;;1.80;;
2061;SDS011;11070;51.336;12.340;2024-03-23T09:30:07;3.10;;;2.80;;
2061;SDS011;11070;51.336;12.340;2024-03-23T09:32:35;7.22;;;3.17;;
2061;SDS011;11070;51.336;12.340;2024-03-23T09:35:01;3.53;;;3.22;;
2061;SDS011;11070;51.336;12.340;2024-03-23T09:37:26;2.63;;;2.37;;
2061;SDS011;11070;51.336;12.340;2024-03-23T09:39:52;4.33;;;3.90;;
2061;SDS011;11070;51.336;12.340;2024-03-23T09:42:18;4.50;;;3.50;;
2061;SDS011;11070;51.336;12.340;2024-03-23T09:44:43;5.17;;;4.13;;
2061;SDS011;11070;51.336;12.340;2024-03-23T09:47:09;6.28;;;3.92;;
2061;SDS011;11070;51.336;12.340;2024-03-23T09:49:35;5.43;;;3.33;;
2061;SDS011;11070;51.336;12.340;2024-03-23T09:52:01;3.92;;;3.55;;
2061;SDS011;11070;51.336;12.340;2024-03-23T09:54:28;10.05;;;6.45;;
2061;SDS011;11070;51.336;12.340;2024-03-23T09:56:57;4.65;;;3.83;;
2061;SDS011;11070;51.336;12.340;2024-03-23T09:59:23;5.10;;;3.70;;
2061;SDS011;11070;51.336;12.340;2024-03-23T10:01:51;6.10;;;4.53;;
2061;SDS011;11070;51.336;12.340;2024-03-23T10:07:19;5.13;;;3.80;;
2061;SDS011;11070;51.336;12.340;2024-03-23T10:09:50;4.95;;;3.50;;
2061;SDS011;11070;51.336;12.340;2024-03-23T10:12:17;5.13;;;3.40;;
2061;SDS011;11070;51.336;12.340;2024-03-23T10:14:44;1.83;;;1.73;;
2061;SDS011;11070;51.336;12.340;2024-03-23T10:19:48;2.40;;;2.20;;
2061;SDS011;11070;51.336;12.340;2024-03-23T10:22:19;2.78;;;2.58;;
2061;SDS011;11070;51.336;12.340;2024-03-23T10:24:49;3.05;;;2.80;;
2061;SDS011;11070;51.336;12.340;2024-03-23T10:27:15;3.40;;;3.10;;
2061;SDS011;11070;51.336;12.340;2024-03-23T10:29:45;6.05;;;3.30;;
2061;SDS011;11070;51.336;12.340;2024-03-23T10:32:11;3.70;;;3.40;;
2061;SDS011;11070;51.336;12.340;2024-03-23T10:34:39;6.40;;;4.05;;
2061;SDS011;11070;51.336;12.340;2024-03-23T10:37:05;6.60;;;6.00;;
2061;SDS011;11070;51.336;12.340;2024-03-23T10:39:36;7.07;;;6.30;;
2061;SDS011;11070;51.336;12.340;2024-03-23T10:42:03;7.40;;;6.70;;
2061;SDS011;11070;51.336;12.340;2024-03-23T10:44:33;8.10;;;6.70;;
2061;SDS011;11070;51.336;12.340;2024-03-23T10:46:59;5.60;;;5.10;;
2061;SDS011;11070;51.336;12.340;2024-03-23T10:49:29;5.95;;;5.35;;
2061;SDS011;11070;51.336;12.340;2024-03-23T10:52:07;5.85;;;5.35;;
2061;SDS011;11070;51.336;12.340;2024-03-23T10:54:36;5.90;;;5.05;;
2061;SDS011;11070;51.336;12.340;2024-03-23T10:59:42;5.80;;;5.22;;
2061;SDS011;11070;51.336;12.340;2024-03-23T11:02:20;5.65;;;4.78;;
2061;SDS011;11070;51.336;12.340;2024-03-23T11:04:46;5.30;;;4.70;;
2061;SDS011;11070;51.336;12.340;2024-03-23T11:09:57;4.90;;;4.40;;
2061;SDS011;11070;51.336;12.340;2024-03-23T11:17:20;6.55;;;4.05;;
2061;SDS011;11070;51.336;12.340;2024-03-23T11:19:56;4.13;;;3.72;;
2061;SDS011;11070;51.336;12.340;2024-03-23T11:25:26;3.65;;;3.25;;
2061;SDS011;11070;51.336;12.340;2024-03-23T11:27:52;3.35;;;2.80;;
2061;SDS011;11070;51.336;12.340;2024-03-23T11:30:19;3.60;;;2.78;;
2061;SDS011;11070;51.336;12.340;2024-03-23T11:32:49;3.42;;;2.72;;
2061;SDS011;11070;51.336;12.340;2024-03-23T11:38:08;4.95;;;3.30;;
2061;SDS011;11070;51.336;12.340;2024-03-23T11:40:46;4.40;;;2.00;;
2061;SDS011;11070;51.336;12.340;2024-03-23T11:43:17;6.15;;;2.55;;
2061;SDS011;11070;51.336;12.340;2024-03-23T11:45:45;3.25;;;2.30;;
2061;SDS011;11070;51.336;12.340;2024-03-23T11:48:18;6.10;;;2.83;;
2061;SDS011;11070;51.336;12.340;2024-03-23T11:50:47;4.05;;;2.40;;
2061;SDS011;11070;51.336;12.340;2024-03-23T11:53:17;3.40;;;1.98;;
2061;SDS011;11070;51.336;12.340;2024-03-23T11:55:48;4.95;;;1.90;;
2061;SDS011;11070;51.336;12.340;2024-03-23T11:58:18;2.47;;;1.45;;
2061;SDS011;11070;51.336;12.340;2024-03-23T12:00:50;1.85;;;1.33;;
2061;SDS011;11070;51.336;12.340;2024-03-23T12:03:23;1.55;;;1.45;;
2061;SDS011;11070;51.336;12.340;2024-03-23T12:05:54;3.05;;;1.35;;
2061;SDS011;11070;51.336;12.340;2024-03-23T12:08:24;3.13;;;1.23;;
2061;SDS011;11070;51.336;12.340;2024-03-23T12:11:04;1.40;;;1.30;;
2061;SDS011;11070;51.336;12.340;2024-03-23T12:13:30;1.55;;;1.20;;
2061;SDS011;11070;51.336;12.340;2024-03-23T12:15:57;1.30;;;1.20;;
2061;SDS011;11070;51.336;12.340;2024-03-23T12:18:33;3.05;;;1.38;;
2061;SDS011;11070;51.336;12.340;2024-03-23T12:20:59;1.60;;;1.50;;
2061;SDS011;11070;51.336;12.340;2024-03-23T12:23:25;2.43;;;1.60;;
2061;SDS011;11070;51.336;12.340;2024-03-23T12:25:51;2.37;;;1.47;;
2061;SDS011;11070;51.336;12.340;2024-03-23T12:28:16;2.30;;;2.07;;
2061;SDS011;11070;51.336;12.340;2024-03-23T12:30:42;2.17;;;1.40;;
2061;SDS011;11070;51.336;12.340;2024-03-23T12:33:08;2.10;;;1.77;;
2061;SDS011;11070;51.336;12.340;2024-03-23T12:35:33;2.83;;;2.10;;
2061;SDS011;11070;51.336;12.340;2024-03-23T12:37:59;1.80;;;1.70;;
2061;SDS011;11070;51.336;12.340;2024-03-23T12:40:25;2.70;;;2.50;;
2061;SDS011;11070;51.336;12.340;2024-03-23T12:42:52;3.33;;;1.75;;
2061;SDS011;11070;51.336;12.340;2024-03-23T12:45:18;2.45;;;2.25;;
2061;SDS011;11070;51.336;12.340;2024-03-23T12:47:44;3.87;;;2.00;;
2061;SDS011;11070;51.336;12.340;2024-03-23T12:50:10;3.90;;;2.80;;
2061;SDS011;11070;51.336;12.340;2024-03-23T12:52:36;3.33;;;2.60;;
2061;SDS011;11070;51.336;12.340;2024-03-23T12:55:02;3.30;;;3.00;;
2061;SDS011;11070;51.336;12.340;2024-03-23T12:57:30;3.35;;;3.13;;
2061;SDS011;11070;51.336;12.340;2024-03-23T12:59:57;3.95;;;3.65;;
2061;SDS011;11070;51.336;12.340;2024-03-23T13:02:23;3.93;;;3.50;;
2061;SDS011;11070;51.336;12.340;2024-03-23T13:04:51;5.03;;;3.93;;
2061;SDS011;11070;51.336;12.340;2024-03-23T13:07:18;6.72;;;4.55;;
2061;SDS011;11070;51.336;12.340;2024-03-23T13:09:45;5.38;;;4.45;;
2061;SDS011;11070;51.336;12.340;2024-03-23T13:12:11;4.60;;;3.90;;
2061;SDS011;11070;51.336;12.340;2024-03-23T13:14:37;4.22;;;3.85;;
2061;SDS011;11070;51.336;12.340;2024-03-23T13:17:03;4.22;;;3.83;;
2061;SDS011;11070;51.336;12.340;2024-03-23T13:19:29;5.47;;;3.47;;
2061;SDS011;11070;51.336;12.340;2024-03-23T13:21:59;4.72;;;4.13;;
2061;SDS011;11070;51.336;12.340;2024-03-23T13:24:26;6.28;;;3.83;;
2061;SDS011;11070;51.336;12.340;2024-03-23T13:26:53;6.45;;;3.50;;
2061;SDS011;11070;51.336;12.340;2024-03-23T13:29:20;5.55;;;3.80;;
2061;SDS011;11070;51.336;12.340;2024-03-23T13:31:47;5.65;;;3.70;;
2061;SDS011;11070;51.336;12.340;2024-03-23T13:34:13;6.03;;;3.42;;
2061;SDS011;11070;51.336;12.340;2024-03-23T13:36:43;6.25;;;3.90;;
2061;SDS011;11070;51.336;12.340;2024-03-23T13:39:10;4.28;;;3.80;;
2061;SDS011;11070;51.336;12.340;2024-03-23T13:41:43;5.10;;;3.75;;
2061;SDS011;11070;51.336;12.340;2024-03-23T13:44:13;5.00;;;3.53;;
2061;SDS011;11070;51.336;12.340;2024-03-23T13:46:40;6.70;;;4.50;;
2061;SDS011;11070;51.336;12.340;2024-03-23T13:51:58;11.05;;;4.50;;
2061;SDS011;11070;51.336;12.340;2024-03-23T13:54:27;6.40;;;5.20;;
2061;SDS011;11070;51.336;12.340;2024-03-23T13:56:54;7.57;;;5.20;;
2061;SDS011;11070;51.336;12.340;2024-03-23T13:59:21;6.35;;;5.20;;
2061;SDS011;11070;51.336;12.340;2024-03-23T14:01:48;6.35;;;4.70;;
2061;SDS011;11070;51.336;12.340;2024-03-23T14:04:14;4.57;;;4.17;;
2061;SDS011;11070;51.336;12.340;2024-03-23T14:06:41;5.22;;;4.72;;
2061;SDS011;11070;51.336;12.340;2024-03-23T14:09:10;6.45;;;4.47;;
2061;SDS011;11070;51.336;12.340;2024-03-23T14:11:36;5.90;;;5.30;;
2061;SDS011;11070;51.336;12.340;2024-03-23T14:14:02;6.85;;;5.90;;
2061;SDS011;11070;51.336;12.340;2024-03-23T14:16:29;7.05;;;5.63;;
2061;SDS011;11070;51.336;12.340;2024-03-23T14:18:58;8.68;;;5.70;;
2061;SDS011;11070;51.336;12.340;2024-03-23T14:21:24;7.25;;;5.45;;
2061;SDS011;11070;51.336;12.340;2024-03-23T14:23:56;10.27;;;6.25;;
2061;SDS011;11070;51.336;12.340;2024-03-23T14:26:22;10.40;;;6.80;;
2061;SDS011;11070;51.336;12.340;2024-03-23T14:28:48;9.30;;;5.80;;
2061;SDS011;11070;51.336;12.340;2024-03-23T14:31:15;5.32;;;4.80;;
2061;SDS011;11070;51.336;12.340;2024-03-23T14:33:47;5.93;;;4.53;;
2061;SDS011;11070;51.336;12.340;2024-03-23T14:36:14;3.80;;;3.38;;
2061;SDS011;11070;51.336;12.340;2024-03-23T14:39:06;4.20;;;3.60;;
2061;SDS011;11070;51.336;12.340;2024-03-23T14:41:32;5.13;;;3.50;;
2061;SDS011;11070;51.336;12.340;2024-03-23T14:43:57;4.70;;;3.63;;
2061;SDS011;11070;51.336;12.340;2024-03-23T14:46:23;4.93;;;3.77;;
2061;SDS011;11070;51.336;12.340;2024-03-23T14:48:49;6.70;;;4.10;;
2061;SDS011;11070;51.336;12.340;2024-03-23T14:51:14;6.90;;;3.87;;
2061;SDS011;11070;51.336;12.340;2024-03-23T14:53:41;4.67;;;4.27;;
2061;SDS011;11070;51.336;12.340;2024-03-23T14:56:10;6.70;;;5.70;;
2061;SDS011;11070;51.336;12.340;2024-03-23T14:58:38;6.45;;;4.93;;
2061;SDS011;11070;51.336;12.340;2024-03-23T15:01:04;5.70;;;4.80;;
2061;SDS011;11070;51.336;12.340;2024-03-23T15:03:34;7.35;;;4.82;;
2061;SDS011;11070;51.336;12.340;2024-03-23T15:06:00;6.13;;;4.85;;
2061;SDS011;11070;51.336;12.340;2024-03-23T15:08:27;4.90;;;4.45;;
2061;SDS011;11070;51.336;12.340;2024-03-23T15:10:53;6.10;;;4.50;;
2061;SDS011;11070;51.336;12.340;2024-03-23T15:13:19;4.65;;;4.05;;
2061;SDS011;11070;51.336;12.340;2024-03-23T15:15:48;4.85;;;4.18;;
2061;SDS011;11070;51.336;12.340;2024-03-23T15:18:14;4.00;;;3.60;;
2061;SDS011;11070;51.336;12.340;2024-03-23T15:20:56;3.63;;;3.33;;
2061;SDS011;11070;51.336;12.340;2024-03-23T15:23:27;2.60;;;2.40;;
2061;SDS011;11070;51.336;12.340;2024-03-23T15:25:55;2.80;;;2.40;;
2061;SDS011;11070;51.336;12.340;2024-03-23T15:28:25;3.83;;;3.17;;
2061;SDS011;11070;51.336;12.340;2024-03-23T15:31:02;2.85;;;2.60;;
2061;SDS011;11070;51.336;12.340;2024-03-23T15:33:30;3.25;;;2.60;;
2061;SDS011;11070;51.336;12.340;2024-03-23T15:36:02;2.90;;;2.70;;
2061;SDS011;11070;51.336;12.340;2024-03-23T15:38:29;3.22;;;2.92;;
2061;SDS011;11070;51.336;12.340;2024-03-23T15:40:56;3.50;;;3.22;;
2061;SDS011;11070;51.336;12.340;2024-03-23T15:43:22;4.83;;;3.57;;
2061;SDS011;11070;51.336;12.340;2024-03-23T15:45:57;4.27;;;3.87;;
2061;SDS011;11070;51.336;12.340;2024-03-23T15:48:26;4.43;;;3.92;;
2061;SDS011;11070;51.336;12.340;2024-03-23T15:50:53;4.30;;;3.92;;
2061;SDS011;11070;51.336;12.340;2024-03-23T15:53:20;6.95;;;4.05;;
2061;SDS011;11070;51.336;12.340;2024-03-23T15:58:26;5.72;;;4.47;;
2061;SDS011;11070;51.336;12.340;2024-03-23T16:03:26;7.65;;;6.00;;
2061;SDS011;11070;51.336;12.340;2024-03-23T16:06:02;9.75;;;6.20;;
2061;SDS011;11070;51.336;12.340;2024-03-23T16:08:29;6.75;;;6.07;;
2061;SDS011;11070;51.336;12.340;2024-03-23T16:10:59;9.98;;;7.07;;